Terminal Aerodrome Forecast
Issued by NWS

Home | Current Version | Previous Version | Text Only | Print | Product List | Glossary On
Versions: 1 2 3 4 5 6 7 8 9 10 11 12 13 14 15 16 17
000
FTUS45 KRIW 301332 AAA
TAFCPR
TAF AMD
KCPR 301332Z 3014/0112 04011KT 2SM -SN BKN006 OVC015
      TEMPO 3014/3018 1 1/2SM -SN
     FM302000 04013KT 5SM -SNRA OVC009
     FM010000 05012KT P6SM -SNRA SCT008 OVC012
     FM010400 08008KT P6SM VCFG OVC008=

USA.gov is the U.S. government's official web portal to all federal, state and local government web resources and services.